Terminal Aerodrome Forecast
Issued by NWS

Home | Current Version | Previous Version | Text Only | Print | Product List | Glossary On
Versions: 1 2 3 4 5 6 7 8 9 10 11 12 13 14 15 16 17 18 19 20 21
000
FTUS45 KABQ 301734
TAFTCC
TAF
KTCC 301734Z 3018/3118 VRB06KT P6SM SCT050 SCT120
      TEMPO 3019/3021 BKN050
     FM302300 16010KT P6SM VCTS BKN050CB
     FM310400 10007KT P6SM VCSH OVC050
     FM311000 VRB06KT P6SM SCT015 BKN025=

USA.gov is the U.S. government's official web portal to all federal, state and local government web resources and services.